Time;durP1;ratioP1;P1;durP2;ratioP2;P2;SDS_P1;SDS_P2;PMS_P1;PMS_P2;Temp;Humidity;BMP_temperature;BMP_pressure;BME280_temperature;BME280_humidity;BME280_pressure;Samples;Min_cycle;Max_cycle;Signal;HPM_P1;HPM_P2
2023/05/18 00:02:00;;;;;;;6.53;1.42;;;;;;;;;;4992059;28;20113;-76
2023/05/18 00:04:27;;;;;;;7.22;2.00;;;;;;;;;;4990583;28;20130;-77
2023/05/18 00:06:57;;;;;;;6.32;1.17;;;;;;;;;;4992681;28;20053;-75
2023/05/18 00:09:26;;;;;;;6.75;1.60;;;7.50;90.20;;;;;;4994552;28;20057;-75
2023/05/18 00:11:52;;;;;;;8.73;1.92;;;7.50;90.20;;;;;;4995307;28;20048;-77
2023/05/18 00:14:24;;;;;;;7.97;1.63;;;7.40;94.20;;;;;;4994842;28;20727;-75
2023/05/18 00:16:53;;;;;;;7.38;1.67;;;;;;;;;;4983415;28;20163;-78
2023/05/18 00:19:23;;;;;;;8.75;1.10;;;7.50;89.90;;;;;;4994878;28;20058;-76
2023/05/18 00:21:51;;;;;;;8.77;1.48;;;7.50;90.10;;;;;;4994885;28;20207;-75
2023/05/18 00:24:17;;;;;;;5.32;1.48;;;7.30;90.10;;;;;;4982358;28;20101;-75
2023/05/18 00:26:45;;;;;;;12.07;2.50;;;7.40;90.10;;;;;;4981800;28;20054;-76
2023/05/18 00:29:11;;;;;;;10.02;2.50;;;;;;;;;;4961472;28;20159;-76
2023/05/18 00:31:38;;;;;;;8.90;1.42;;;7.40;90.40;;;;;;4994343;28;20046;-75
2023/05/18 00:34:12;;;;;;;9.48;2.50;;;7.40;90.40;;;;;;4977769;28;20046;-76
2023/05/18 00:36:39;;;;;;;6.63;1.92;;;;;;;;;;4993905;28;20064;-75
2023/05/18 00:39:08;;;;;;;9.60;1.45;;;7.20;90.70;;;;;;4977370;28;20061;-76
2023/05/18 00:41:34;;;;;;;9.27;2.05;;;7.20;90.80;;;;;;4960653;28;20450;-76
2023/05/18 00:44:00;;;;;;;8.63;1.67;;;;;;;;;;4992383;28;20089;-77
2023/05/18 00:46:27;;;;;;;11.45;2.38;;;7.20;91.00;;;;;;4994144;28;20107;-77
2023/05/18 00:48:55;;;;;;;9.07;1.33;;;7.20;91.10;;;;;;4993463;28;20903;-77
2023/05/18 00:51:23;;;;;;;7.38;2.20;;;7.10;91.20;;;;;;4990885;28;20061;-76
2023/05/18 00:53:51;;;;;;;9.30;1.55;;;7.10;91.40;;;;;;4972505;28;20164;-76
2023/05/18 00:56:17;;;;;;;7.50;2.30;;;;;;;;;;4994019;28;20199;-76
2023/05/18 00:58:44;;;;;;;11.52;2.08;;;;;;;;;;4993553;28;20180;-76
2023/05/18 01:01:11;;;;;;;9.65;1.50;;;;;;;;;;4994024;28;20073;-76
2023/05/18 01:03:37;;;;;;;9.63;1.55;;;;;;;;;;4993937;28;20058;-76
2023/05/18 01:06:04;;;;;;;6.72;1.30;;;6.90;91.90;;;;;;4992955;28;20081;-76
2023/05/18 01:08:31;;;;;;;9.23;2.00;;;;;;;;;;4993939;28;20171;-76
2023/05/18 01:11:04;;;;;;;8.63;1.85;;;7.00;91.80;;;;;;4994318;28;20392;-77
2023/05/18 01:13:39;;;;;;;7.25;1.27;;;6.90;91.80;;;;;;4982372;28;20050;-76
2023/05/18 01:16:09;;;;;;;7.97;1.52;;;7.50;91.90;;;;;;4993698;28;20096;-76
2023/05/18 01:18:43;;;;;;;8.02;2.50;;;7.00;91.70;;;;;;4994090;28;20561;-76
2023/05/18 01:21:35;;;;;;;10.88;2.00;;;7.00;91.60;;;;;;4981777;28;20475;-77
2023/05/18 01:24:02;;;;;;;8.77;1.35;;;;;;;;;;4981985;28;20065;-77
2023/05/18 01:26:31;;;;;;;7.28;1.17;;;7.00;91.50;;;;;;4993597;28;20093;-78
2023/05/18 01:29:05;;;;;;;5.88;1.30;;;7.00;91.60;;;;;;4989405;28;20082;-77
2023/05/18 01:31:31;;;;;;;8.20;1.55;;;;;;;;;;4996311;28;20053;-77
2023/05/18 01:33:58;;;;;;;9.27;2.60;;;;;;;;;;4978939;28;20057;-76
2023/05/18 01:36:24;;;;;;;6.60;1.58;;;;;;;;;;4994913;28;20104;-77
2023/05/18 01:38:51;;;;;;;8.65;1.80;;;7.00;91.90;;;;;;4994129;28;20054;-76
2023/05/18 01:41:23;;;;;;;8.05;1.42;;;7.00;92.00;;;;;;4994288;28;20088;-76
2023/05/18 01:43:58;;;;;;;8.55;1.70;;;7.00;92.10;;;;;;4977634;28;20072;-76
2023/05/18 01:46:50;;;;;;;11.32;2.08;;;7.10;92.20;;;;;;4993642;28;20134;-77
2023/05/18 01:49:26;;;;;;;7.90;1.90;;;7.00;92.30;;;;;;4983350;28;20069;-75
2023/05/18 01:51:54;;;;;;;6.72;1.42;;;7.00;92.40;;;;;;4976696;28;20470;-75
2023/05/18 01:54:21;;;;;;;12.10;2.40;;;7.00;92.40;;;;;;4986959;28;20049;-77
2023/05/18 01:56:49;;;;;;;7.65;1.77;;;7.00;92.40;;;;;;4993537;28;20054;-76
2023/05/18 01:59:16;;;;;;;8.90;1.52;;;7.00;92.40;;;;;;4992684;28;20050;-76
2023/05/18 02:01:43;;;;;;;6.45;1.23;;;;;;;;;;4977010;28;20120;-77
2023/05/18 02:04:10;;;;;;;9.57;1.50;;;;;;;;;;4983782;28;20443;-75
2023/05/18 02:06:36;;;;;;;10.10;2.65;;;;;;;;;;4973554;28;20152;-75
2023/05/18 02:09:04;;;;;;;8.73;1.35;;;7.00;92.50;;;;;;4991931;28;20100;-75
2023/05/18 02:11:30;;;;;;;7.97;1.20;;;;;;;;;;4992388;28;20082;-76
2023/05/18 02:13:56;;;;;;;6.75;1.20;;;;;;;;;;4992651;28;20049;-76
2023/05/18 02:16:22;;;;;;;4.63;1.40;;;;;;;;;;4972883;28;20057;-76
2023/05/18 02:18:48;;;;;;;8.23;1.45;;;;;;;;;;4992767;28;20054;-76
2023/05/18 02:21:14;;;;;;;11.05;1.38;;;;;;;;;;4992375;28;20495;-76
2023/05/18 02:23:41;;;;;;;8.18;1.58;;;;;;;;;;4986853;28;20054;-75
2023/05/18 02:26:07;;;;;;;5.47;1.38;;;;;;;;;;4967931;28;20577;-76
2023/05/18 02:28:33;;;;;;;8.02;1.52;;;7.00;92.30;;;;;;4992565;28;20194;-75
2023/05/18 02:31:10;;;;;;;12.73;1.80;;;7.00;92.30;;;;;;4992247;28;20054;-75
2023/05/18 02:33:40;;;;;;;12.32;1.52;;;;;;;;;;4992773;28;20050;-77
2023/05/18 02:36:07;;;;;;;10.27;1.40;;;6.60;92.00;;;;;;4988096;28;20077;-74
2023/05/18 02:38:36;;;;;;;9.25;2.10;;;7.00;92.00;;;;;;4984348;28;20084;-75
2023/05/18 02:41:02;;;;;;;8.68;1.20;;;;;;;;;;4983777;28;20060;-76
2023/05/18 02:43:28;;;;;;;6.90;1.63;;;;;;;;;;4992413;28;20048;-76
2023/05/18 02:45:55;;;;;;;5.55;1.27;;;;;;;;;;4992514;28;20050;-76
2023/05/18 02:48:21;;;;;;;9.40;1.20;;;;;;;;;;4992318;28;20095;-77
2023/05/18 02:50:50;;;;;;;6.78;1.33;;;7.00;92.50;;;;;;4975295;28;20060;-77
2023/05/18 02:53:16;;;;;;;7.90;1.95;;;;;;;;;;4986629;28;20085;-77
2023/05/18 02:55:42;;;;;;;6.47;1.55;;;;;;;;;;4992580;28;20544;-77
2023/05/18 02:58:08;;;;;;;5.32;1.20;;;6.90;92.80;;;;;;4979540;28;20119;-77
2023/05/18 03:00:34;;;;;;;11.35;2.58;;;;;;;;;;4992859;28;20085;-77
2023/05/18 03:03:01;;;;;;;8.25;1.80;;;;;;;;;;4991733;28;20454;-77
2023/05/18 03:05:27;;;;;;;6.25;1.48;;;;;;;;;;4980194;28;20089;-77
2023/05/18 03:07:53;;;;;;;6.97;1.58;;;;;;;;;;4972071;28;20049;-77
2023/05/18 03:10:20;;;;;;;6.00;1.52;;;6.90;93.10;;;;;;4980618;28;20046;-75
2023/05/18 03:12:46;;;;;;;5.18;1.00;;;6.90;93.10;;;;;;4991554;28;20049;-76
2023/05/18 03:15:15;;;;;;;7.47;0.70;;;;;;;;;;4992097;28;20049;-77
2023/05/18 03:17:44;;;;;;;3.88;1.00;;;6.90;92.70;;;;;;4991617;28;20095;-77
2023/05/18 03:20:10;;;;;;;6.97;0.70;;;6.90;92.60;;;;;;4974069;28;20574;-76
2023/05/18 03:22:39;;;;;;;7.13;1.40;;;6.90;92.40;;;;;;4977753;28;20050;-77
2023/05/18 03:25:06;;;;;;;12.45;2.28;;;;;;;;;;4968883;28;20111;-75
2023/05/18 03:27:32;;;;;;;4.53;1.27;;;;;;;;;;4972131;28;20057;-76
2023/05/18 03:29:58;;;;;;;9.55;1.60;;;;;;;;;;4992239;28;20787;-77
2023/05/18 03:32:27;;;;;;;5.95;1.08;;;;;;;;;;4992324;28;20073;-77
2023/05/18 03:34:53;;;;;;;10.15;1.48;;;;;;;;;;4992076;28;20068;-77
2023/05/18 03:37:19;;;;;;;6.82;1.63;;;;;;;;;;4960716;28;20061;-77
2023/05/18 03:39:45;;;;;;;5.22;1.00;;;;;;;;;;4991444;28;20054;-76
2023/05/18 03:42:11;;;;;;;7.10;0.90;;;;;;;;;;4989826;28;20048;-76
2023/05/18 03:44:38;;;;;;;9.73;1.50;;;;;;;;;;4975449;28;20184;-76
2023/05/18 03:47:04;;;;;;;6.80;1.08;;;;;;;;;;4990930;28;20570;-77
2023/05/18 03:49:32;;;;;;;4.00;0.70;;;6.90;93.00;;;;;;4966137;28;20058;-76
2023/05/18 03:51:59;;;;;;;6.85;1.50;;;;;;;;;;4988580;28;20560;-77
2023/05/18 03:54:25;;;;;;;7.95;1.10;;;;;;;;;;4991545;28;20054;-76
2023/05/18 03:56:51;;;;;;;9.10;1.40;;;;;;;;;;4975308;28;20188;-76
2023/05/18 03:59:17;;;;;;;7.15;1.95;;;;;;;;;;4984343;28;20046;-75
2023/05/18 04:01:43;;;;;;;5.90;1.15;;;;;;;;;;4988392;28;20046;-76
2023/05/18 04:04:16;;;;;;;7.43;1.30;;;7.00;93.30;;;;;;4991449;28;20057;-77
2023/05/18 04:06:48;;;;;;;8.52;1.60;;;7.10;93.50;;;;;;4964486;28;20157;-77
2023/05/18 04:09:16;;;;;;;8.13;1.30;;;;;;;;;;4992652;28;20058;-77
2023/05/18 04:11:42;;;;;;;5.53;0.98;;;;;;;;;;4974868;28;20089;-76
2023/05/18 04:14:09;;;;;;;11.95;2.58;;;;;;;;;;4992385;28;20068;-77
2023/05/18 04:16:35;;;;;;;8.70;1.02;;;;;;;;;;4991697;28;20050;-75
2023/05/18 04:19:03;;;;;;;5.20;1.55;;;;;;;;;;4975437;28;20417;-76
2023/05/18 04:21:34;;;;;;;7.47;0.93;;;;;;;;;;4980760;28;20504;-77
2023/05/18 04:24:04;;;;;;;3.85;0.95;;;7.30;92.60;;;;;;4981291;28;20082;-76
2023/05/18 04:26:30;;;;;;;5.03;0.80;;;;;;;;;;4960204;28;20668;-76
2023/05/18 04:28:58;;;;;;;8.18;0.88;;;;;;;;;;4974202;28;20484;-77
2023/05/18 04:31:26;;;;;;;10.55;1.52;;;7.50;92.30;;;;;;4975344;28;20501;-75
2023/05/18 04:33:53;;;;;;;5.05;1.60;;;;;;;;;;4994662;28;20119;-77
2023/05/18 04:36:19;;;;;;;8.98;1.23;;;;;;;;;;4986455;28;20081;-75
2023/05/18 04:38:45;;;;;;;7.07;0.90;;;;;;;;;;4989150;28;20540;-76
2023/05/18 04:41:11;;;;;;;4.38;0.88;;;;;;;;;;4967934;28;20419;-75
2023/05/18 04:43:38;;;;;;;3.78;0.88;;;;;;;;;;4994707;28;20046;-76
2023/05/18 04:46:05;;;;;;;6.13;0.88;;;;;;;;;;4977978;28;20112;-76
2023/05/18 04:48:32;;;;;;;5.82;0.98;;;;;;;;;;4994009;28;20128;-76
2023/05/18 04:50:58;;;;;;;5.35;0.70;;;;;;;;;;4986835;28;20853;-75
2023/05/18 04:53:26;;;;;;;6.50;2.85;;;;;;;;;;4978656;28;20152;-76
2023/05/18 04:55:53;;;;;;;7.18;0.88;;;8.10;90.80;;;;;;4994536;28;20103;-76
2023/05/18 04:58:19;;;;;;;7.15;1.45;;;;;;;;;;4994364;28;20049;-74
2023/05/18 05:00:45;;;;;;;7.47;1.65;;;;;;;;;;4994052;28;20062;-76
2023/05/18 05:03:11;;;;;;;8.30;1.00;;;;;;;;;;4977778;28;20111;-75
2023/05/18 05:05:38;;;;;;;8.32;1.30;;;;;;;;;;4994115;28;20049;-74
2023/05/18 05:08:05;;;;;;;4.78;0.57;;;;;;;;;;4993992;28;20045;-74
2023/05/18 05:10:31;;;;;;;6.57;1.08;;;;;;;;;;4985234;28;20092;-76
2023/05/18 05:12:57;;;;;;;6.68;1.73;;;;;;;;;;4963963;28;20103;-75
2023/05/18 05:15:23;;;;;;;5.28;0.65;;;;;;;;;;4989996;28;20149;-75
2023/05/18 05:17:50;;;;;;;6.00;1.42;;;;;;;;;;4993790;28;20107;-75
2023/05/18 05:20:16;;;;;;;11.18;1.20;;;;;;;;;;4993985;28;20140;-75
2023/05/18 05:22:42;;;;;;;6.03;0.90;;;;;;;;;;4977953;28;20053;-75
2023/05/18 05:25:08;;;;;;;6.15;1.38;;;;;;;;;;4992372;28;20066;-77
2023/05/18 05:27:35;;;;;;;7.38;0.90;;;;;;;;;;4989364;28;20257;-75
2023/05/18 05:30:01;;;;;;;14.40;1.05;;;;;;;;;;4985120;28;20058;-77
2023/05/18 05:32:27;;;;;;;5.00;0.70;;;;;;;;;;4990318;28;20745;-76
2023/05/18 05:34:53;;;;;;;3.83;0.95;;;;;;;;;;4977351;28;20161;-79
2023/05/18 05:37:19;;;;;;;7.75;0.80;;;;;;;;;;4993652;28;20099;-79
2023/05/18 05:39:45;;;;;;;6.20;0.80;;;;;;;;;;4985554;28;20046;-79
2023/05/18 05:42:11;;;;;;;6.32;0.63;;;;;;;;;;4971974;28;20054;-78
2023/05/18 05:44:39;;;;;;;4.43;1.23;;;;;;;;;;4982398;28;20103;-80
2023/05/18 05:47:06;;;;;;;5.40;0.50;;;;;;;;;;4971077;28;20061;-78
2023/05/18 05:49:32;;;;;;;6.97;0.60;;;;;;;;;;4973708;28;20160;-80
2023/05/18 05:52:01;;;;;;;6.68;1.40;;;;;;;;;;4973872;28;20058;-80
2023/05/18 05:54:27;;;;;;;7.50;0.95;;;;;;;;;;4988270;28;20084;-82
2023/05/18 05:56:54;;;;;;;7.05;0.80;;;;;;;;;;4979240;28;20426;-75
2023/05/18 05:59:21;;;;;;;9.73;1.25;;;;;;;;;;4981596;28;20046;-79
2023/05/18 06:01:47;;;;;;;9.85;2.78;;;;;;;;;;4984536;28;20562;-81
2023/05/18 06:04:14;;;;;;;8.43;1.02;;;;;;;;;;4983450;28;20050;-77
2023/05/18 06:06:42;;;;;;;7.63;0.90;;;;;;;;;;4992398;28;20045;-80
2023/05/18 06:09:09;;;;;;;7.07;1.23;;;;;;;;;;4984650;28;20598;-79
2023/05/18 06:11:35;;;;;;;5.38;0.60;;;;;;;;;;4988902;28;20050;-79
2023/05/18 06:14:01;;;;;;;4.95;0.85;;;;;;;;;;4984330;28;20805;-78
2023/05/18 06:16:27;;;;;;;8.23;1.00;;;;;;;;;;4982529;28;20050;-82
2023/05/18 06:18:54;;;;;;;7.55;1.50;;;;;;;;;;4986497;28;20056;-78
2023/05/18 06:21:20;;;;;;;4.45;0.47;;;;;;;;;;4984851;28;20077;-81
2023/05/18 06:23:46;;;;;;;8.63;0.85;;;;;;;;;;4985842;28;20034;-79
2023/05/18 06:26:13;;;;;;;4.78;0.70;;;;;;;;;;4989717;28;20345;-79
2023/05/18 06:28:39;;;;;;;5.63;0.70;;;;;;;;;;4974938;28;20050;-79
2023/05/18 06:31:06;;;;;;;8.35;0.60;;;;;;;;;;4986966;28;20577;-74
2023/05/18 06:33:33;;;;;;;3.92;1.67;;;;;;;;;;4967481;28;20042;-81
2023/05/18 06:35:59;;;;;;;7.72;1.95;;;;;;;;;;4982959;28;20144;-76
2023/05/18 06:38:25;;;;;;;3.97;0.65;;;;;;;;;;4972045;28;20141;-81
2023/05/18 06:40:51;;;;;;;9.60;1.77;;;;;;;;;;4986310;28;20053;-75
2023/05/18 06:43:17;;;;;;;7.72;1.00;;;;;;;;;;4983060;28;20050;-76
2023/05/18 06:45:43;;;;;;;9.98;1.10;;;;;;;;;;4985702;28;20057;-76
2023/05/18 06:48:09;;;;;;;3.90;0.55;;;;;;;;;;4983944;28;20046;-78
2023/05/18 06:50:35;;;;;;;6.63;0.50;;;;;;;;;;4989127;28;20082;-80
2023/05/18 06:53:03;;;;;;;4.63;0.70;;;;;;;;;;4985730;28;20103;-80
2023/05/18 06:55:29;;;;;;;4.75;0.50;;;;;;;;;;4988624;28;20049;-77
2023/05/18 06:57:57;;;;;;;9.25;0.80;;;;;;;;;;4988374;28;20049;-78
2023/05/18 07:00:23;;;;;;;11.48;0.80;;;;;;;;;;4968707;28;20096;-78
2023/05/18 07:02:49;;;;;;;5.45;0.95;;;;;;;;;;4990321;28;20060;-83
2023/05/18 07:05:16;;;;;;;4.90;1.25;;;;;;;;;;4988767;28;20454;-73
2023/05/18 07:07:42;;;;;;;7.95;0.80;;;;;;;;;;4969246;28;20060;-79
2023/05/18 07:10:08;;;;;;;2.33;0.55;;;;;;;;;;4980139;28;20369;-79
2023/05/18 07:12:35;;;;;;;7.72;0.80;;;;;;;;;;4987565;28;20125;-80
2023/05/18 07:15:01;;;;;;;4.80;0.50;;;;;;;;;;4987578;28;20046;-72
2023/05/18 07:17:27;;;;;;;7.40;0.47;;;;;;;;;;4983119;28;20045;-77
2023/05/18 07:19:53;;;;;;;8.07;0.52;;;;;;;;;;4988396;28;20140;-81
2023/05/18 07:22:19;;;;;;;4.38;0.73;;;;;;;;;;4980623;28;20097;-76
2023/05/18 07:24:45;;;;;;;6.22;0.60;;;;;;;;;;4983800;28;20096;-81
2023/05/18 07:27:11;;;;;;;3.58;0.60;;;;;;;;;;4970684;28;20061;-77
2023/05/18 07:29:37;;;;;;;7.30;0.73;;;;;;;;;;4990409;28;20037;-82
2023/05/18 07:32:04;;;;;;;5.30;0.50;;;;;;;;;;4989364;28;20143;-81
2023/05/18 07:34:30;;;;;;;7.30;0.95;;;;;;;;;;4984086;28;20057;-79
2023/05/18 07:36:57;;;;;;;7.68;0.52;;;;;;;;;;4982181;28;20042;-76
2023/05/18 07:39:27;;;;;;;4.95;1.00;;;;;;;;;;4984937;28;20061;-80
2023/05/18 07:41:54;;;;;;;7.47;0.80;;;16.80;63.30;;;;;;4985313;28;20096;-80
2023/05/18 07:44:20;;;;;;;4.93;0.68;;;;;;;;;;4989140;28;20129;-75
2023/05/18 07:46:46;;;;;;;3.15;0.50;;;;;;;;;;4988286;28;20052;-77
2023/05/18 07:49:13;;;;;;;4.20;0.43;;;;;;;;;;4964833;28;20637;-76
2023/05/18 07:51:40;;;;;;;4.22;0.98;;;;;;;;;;4983967;28;20056;-78
2023/05/18 07:54:07;;;;;;;6.78;0.98;;;;;;;;;;4983032;28;20652;-77
2023/05/18 07:56:34;;;;;;;8.45;0.55;;;;;;;;;;4986348;28;20049;-78
2023/05/18 07:59:00;;;;;;;7.35;0.90;;;;;;;;;;4983693;28;20104;-77
2023/05/18 08:01:28;;;;;;;8.70;0.82;;;;;;;;;;4965795;28;20101;-82
2023/05/18 08:03:56;;;;;;;8.23;0.80;;;;;;;;;;4984643;28;20049;-77
2023/05/18 08:06:22;;;;;;;6.38;0.55;;;;;;;;;;4987999;28;20538;-79
2023/05/18 08:08:49;;;;;;;4.53;1.23;;;;;;;;;;4974410;28;20541;-81
2023/05/18 08:11:15;;;;;;;6.97;0.75;;;;;;;;;;4990632;28;20081;-76
2023/05/18 08:13:41;;;;;;;6.45;0.75;;;;;;;;;;4970744;28;20046;-79
2023/05/18 08:16:07;;;;;;;3.92;0.60;;;;;;;;;;4986191;28;20204;-77
2023/05/18 08:18:33;;;;;;;4.97;0.50;;;;;;;;;;4987181;28;20878;-76
2023/05/18 08:21:01;;;;;;;4.53;0.50;;;;;;;;;;4995265;28;20050;-81
2023/05/18 08:23:27;;;;;;;5.70;0.90;;;;;;;;;;4992524;28;20057;-79
2023/05/18 08:25:55;;;;;;;5.00;0.50;;;;;;;;;;4973800;28;20110;-78
2023/05/18 08:28:21;;;;;;;5.65;0.85;;;;;;;;;;4968334;28;20133;-79
2023/05/18 08:30:47;;;;;;;5.75;0.90;;;;;;;;;;4966197;28;20163;-79
2023/05/18 08:33:13;;;;;;;4.20;0.50;;;;;;;;;;4973138;28;20141;-82
2023/05/18 08:35:40;;;;;;;4.78;0.65;;;;;;;;;;4991278;28;20633;-77
2023/05/18 08:38:06;;;;;;;5.20;0.80;;;;;;;;;;4991086;28;20053;-78
2023/05/18 08:40:40;;;;;;;5.57;0.75;;;24.60;46.10;;;;;;4991555;28;20395;-78
2023/05/18 08:43:32;;;;;;;5.95;1.15;;;25.20;45.90;;;;;;4971846;28;20042;-78
2023/05/18 08:45:58;;;;;;;4.45;0.70;;;;;;;;;;4970693;28;20188;-76
2023/05/18 08:48:26;;;;;;;3.42;0.60;;;23.00;44.00;;;;;;4988369;28;20050;-80
2023/05/18 08:50:56;;;;;;;4.38;0.68;;;25.40;44.30;;;;;;4988092;28;20121;-74
2023/05/18 08:53:24;;;;;;;5.70;0.82;;;25.40;43.90;;;;;;4983868;28;20916;-81
2023/05/18 08:55:53;;;;;;;4.65;0.60;;;25.30;44.70;;;;;;4974506;28;20057;-78
2023/05/18 08:58:28;;;;;;;5.38;0.63;;;25.40;45.70;;;;;;4959836;28;20061;-79
2023/05/18 09:00:54;;;;;;;6.53;0.73;;;;;;;;;;4960434;28;20060;-81
2023/05/18 09:03:21;;;;;;;7.93;0.75;;;25.40;44.30;;;;;;4976004;28;20507;-78
2023/05/18 09:05:53;;;;;;;3.38;0.75;;;24.30;43.30;;;;;;4962459;28;20262;-81
2023/05/18 09:08:19;;;;;;;;;;;24.30;43.80;;;;;;4971832;28;20155;-78
2023/05/18 09:10:47;;;;;;;5.05;0.57;;;21.80;47.00;;;;;;4961520;28;21210;-77
2023/05/18 09:13:18;;;;;;;5.10;0.70;;;20.80;47.00;;;;;;4948316;28;20769;-77
2023/05/18 09:15:45;;;;;;;5.00;0.80;;;;;;;;;;4974084;28;20112;-78
2023/05/18 09:18:11;;;;;;;5.03;0.77;;;;;;;;;;4956471;28;20396;-76
2023/05/18 09:20:37;;;;;;;3.72;0.60;;;;;;;;;;4975543;28;20054;-78
2023/05/18 09:23:04;;;;;;;4.07;0.65;;;20.10;48.90;;;;;;4960582;28;20065;-74
2023/05/18 09:25:33;;;;;;;5.85;0.77;;;19.70;48.70;;;;;;4958844;28;20318;-83
2023/05/18 09:28:00;;;;;;;6.25;1.00;;;;;;;;;;4972319;28;20064;-83
2023/05/18 09:30:27;;;;;;;5.75;0.75;;;;;;;;;;4960466;28;20167;-76
2023/05/18 09:32:53;;;;;;;7.28;1.00;;;;;;;;;;4977662;28;20046;-74
2023/05/18 09:35:19;;;;;;;6.10;0.75;;;;;;;;;;4968906;28;20955;-75
2023/05/18 09:37:45;;;;;;;4.50;0.60;;;;;;;;;;4996855;28;20186;-82
2023/05/18 09:40:12;;;;;;;6.03;0.63;;;;;;;;;;4996306;28;20811;-76
2023/05/18 09:42:42;;;;;;;4.95;0.50;;;19.00;51.70;;;;;;5012857;28;20061;-80
2023/05/18 09:45:25;;;;;;;7.10;0.80;;;18.90;51.40;;;;;;5013298;28;20943;-80
2023/05/18 09:47:52;;;;;;;6.18;0.70;;;;;;;;;;4994745;28;20045;-83
2023/05/18 09:50:21;;;;;;;3.63;0.65;;;19.00;53.00;;;;;;5003790;28;20058;-82
2023/05/18 09:52:48;;;;;;;3.65;0.60;;;;;;;;;;5004329;28;20844;-77
2023/05/18 09:55:18;;;;;;;5.00;0.50;;;18.80;51.50;;;;;;4988444;28;20858;-83
2023/05/18 09:57:50;;;;;;;5.93;0.70;;;19.80;52.70;;;;;;4969109;28;20072;-74
2023/05/18 10:00:18;;;;;;;9.23;0.80;;;19.40;51.60;;;;;;4977146;28;20056;-78
2023/05/18 10:02:47;;;;;;;10.18;2.60;;;19.40;51.10;;;;;;4991089;28;20764;-77
2023/05/18 10:05:20;;;;;;;4.55;1.30;;;19.30;51.70;;;;;;4999912;28;20379;-78
2023/05/18 10:07:47;;;;;;;4.97;0.70;;;;;;;;;;4988787;28;20128;-81
2023/05/18 10:10:18;;;;;;;5.32;0.80;;;19.10;51.30;;;;;;4997773;28;20510;-79
2023/05/18 10:12:44;;;;;;;5.10;1.00;;;;;;;;;;4981000;28;20671;-81
2023/05/18 10:15:14;;;;;;;3.75;1.40;;;20.20;51.50;;;;;;4996439;28;20553;-79
2023/05/18 10:17:40;;;;;;;7.53;1.05;;;;;;;;;;4973043;28;20592;-79
2023/05/18 10:20:09;;;;;;;6.57;1.02;;;21.00;48.10;;;;;;4974341;28;20085;-76
2023/05/18 10:22:36;;;;;;;4.05;0.52;;;21.40;47.50;;;;;;4994880;28;20099;-79
2023/05/18 10:25:07;;;;;;;3.08;0.63;;;21.10;47.00;;;;;;4996798;28;20064;-77
2023/05/18 10:27:34;;;;;;;4.80;0.70;;;21.00;47.90;;;;;;4994101;28;20136;-77
2023/05/18 10:30:04;;;;;;;7.95;1.15;;;;;;;;;;4998708;28;20396;-82
2023/05/18 10:32:33;;;;;;;5.80;0.75;;;23.90;50.50;;;;;;4977254;28;20068;-80
2023/05/18 10:34:59;;;;;;;6.78;1.52;;;;;;;;;;4997477;28;20414;-77
2023/05/18 10:37:29;;;;;;;5.50;0.93;;;20.30;48.40;;;;;;4995080;28;20060;-83
2023/05/18 10:39:56;;;;;;;4.70;1.00;;;;;;;;;;5003790;28;20056;-84
2023/05/18 10:42:23;;;;;;;7.10;1.55;;;19.30;49.90;;;;;;5013828;28;20080;-77
2023/05/18 10:44:50;;;;;;;4.72;0.73;;;;;;;;;;5010726;28;20050;-79
2023/05/18 10:47:18;;;;;;;5.60;0.98;;;19.00;51.20;;;;;;5007446;28;20060;-77
2023/05/18 10:49:47;;;;;;;7.07;1.42;;;18.60;52.10;;;;;;4990511;28;20042;-77
2023/05/18 10:52:16;;;;;;;5.55;1.40;;;18.40;52.50;;;;;;4994760;28;20054;-79
2023/05/18 10:54:42;;;;;;;4.82;1.10;;;;;;;;;;4989201;28;20075;-80
2023/05/18 10:57:15;;;;;;;5.32;1.00;;;18.10;52.70;;;;;;5001008;28;20046;-80
2023/05/18 10:59:43;;;;;;;9.20;1.88;;;17.80;53.50;;;;;;5009413;28;20582;-77
2023/05/18 11:02:17;;;;;;;6.70;1.63;;;17.90;54.10;;;;;;5012170;28;20458;-78
2023/05/18 11:04:45;;;;;;;6.70;1.10;;;17.50;53.80;;;;;;5000377;28;20148;-77
2023/05/18 11:07:12;;;;;;;7.65;1.50;;;17.40;53.50;;;;;;5005289;28;20108;-77
2023/05/18 11:09:42;;;;;;;5.90;1.33;;;17.10;53.80;;;;;;5003934;28;20045;-72
2023/05/18 11:12:12;;;;;;;5.45;1.25;;;17.00;54.30;;;;;;5012276;28;20057;-73
2023/05/18 11:14:48;;;;;;;5.15;0.80;;;16.70;55.30;;;;;;4986892;28;20049;-71
2023/05/18 11:17:20;;;;;;;6.60;1.10;;;16.60;54.90;;;;;;5005632;28;20045;-73
2023/05/18 11:20:04;;;;;;;8.88;1.20;;;16.50;55.60;;;;;;5002645;28;20061;-74
2023/05/18 11:22:58;;;;;;;5.20;1.20;;;16.40;56.20;;;;;;5007330;28;20681;-72
2023/05/18 11:25:24;;;;;;;8.77;1.00;;;;;;;;;;5001492;28;20159;-73
2023/05/18 11:28:06;;;;;;;5.85;1.23;;;16.20;56.90;;;;;;5010325;28;20057;-74
2023/05/18 11:30:32;;;;;;;8.43;0.90;;;;;;;;;;5008523;28;20133;-73
2023/05/18 11:33:08;;;;;;;10.45;3.05;;;;;;;;;;4994640;28;20655;-73
2023/05/18 11:36:02;;;;;;;8.30;1.10;;;16.10;57.30;;;;;;4985488;28;20050;-73
2023/05/18 11:38:53;;;;;;;8.07;0.77;;;16.00;57.20;;;;;;5007123;28;20053;-69
2023/05/18 11:41:35;;;;;;;3.83;1.15;;;15.80;57.90;;;;;;5004308;28;20502;-74
2023/05/18 11:44:18;;;;;;;4.70;1.17;;;;;;;;;;4999655;28;20057;-71
2023/05/18 11:46:56;;;;;;;6.38;1.55;;;;;;;;;;5013091;28;20111;-74
2023/05/18 11:49:23;;;;;;;5.13;1.05;;;;;;;;;;5006547;28;20122;-75
2023/05/18 11:51:57;;;;;;;8.25;1.00;;;;;;;;;;4999346;28;20048;-70
2023/05/18 11:54:26;;;;;;;6.50;1.00;;;;;;;;;;5015392;28;20175;-72
2023/05/18 11:56:52;;;;;;;7.15;1.25;;;;;;;;;;4997235;28;20076;-71
2023/05/18 11:59:29;;;;;;;6.43;0.80;;;;;;;;;;5015314;28;20133;-73
2023/05/18 12:01:57;;;;;;;7.05;1.00;;;;;;;;;;5014381;28;20053;-74
2023/05/18 12:04:24;;;;;;;5.85;0.80;;;15.50;59.20;;;;;;5015263;28;20111;-72
2023/05/18 12:06:51;;;;;;;4.47;1.08;;;;;;;;;;4993168;28;20114;-70
2023/05/18 12:09:18;;;;;;;8.23;1.30;;;;;;;;;;5002719;28;20057;-71
2023/05/18 12:11:44;;;;;;;3.17;0.68;;;;;;;;;;5010105;28;20644;-69
2023/05/18 12:14:11;;;;;;;6.07;0.90;;;;;;;;;;5013630;28;20073;-71
2023/05/18 12:16:38;;;;;;;4.20;0.80;;;;;;;;;;5007335;28;20050;-71
2023/05/18 12:19:04;;;;;;;5.72;1.00;;;;;;;;;;5004562;28;20046;-71
2023/05/18 12:21:31;;;;;;;3.65;0.63;;;;;;;;;;5012523;28;20052;-71
2023/05/18 12:24:01;;;;;;;3.92;0.60;;;15.70;59.60;;;;;;5007868;28;20538;-70
2023/05/18 12:26:28;;;;;;;5.90;0.88;;;;;;;;;;5015019;28;20061;-73
2023/05/18 12:28:54;;;;;;;7.20;0.77;;;;;;;;;;5015582;28;20056;-72
2023/05/18 12:31:21;;;;;;;5.72;0.85;;;;;;;;;;5013782;28;20687;-71
2023/05/18 12:33:47;;;;;;;4.63;1.40;;;;;;;;;;5006739;28;20633;-73
2023/05/18 12:36:14;;;;;;;4.10;0.70;;;;;;;;;;4999910;28;20054;-70
2023/05/18 12:38:40;;;;;;;5.20;0.80;;;;;;;;;;5008906;28;20677;-73
2023/05/18 12:41:07;;;;;;;5.95;1.13;;;;;;;;;;5003549;28;20657;-68
2023/05/18 12:43:34;;;;;;;8.13;1.00;;;;;;;;;;5001766;28;20054;-71
2023/05/18 12:46:01;;;;;;;4.00;0.90;;;;;;;;;;5003196;28;20087;-71
2023/05/18 12:48:29;;;;;;;10.02;1.30;;;;;;;;;;5014595;28;20045;-71
2023/05/18 12:50:55;;;;;;;3.08;0.90;;;;;;;;;;4979972;28;20058;-69
2023/05/18 12:53:22;;;;;;;4.43;1.02;;;;;;;;;;5006182;28;20081;-69
2023/05/18 12:55:58;;;;;;;6.32;1.75;;;16.00;59.90;;;;;;5014248;28;20053;-73
2023/05/18 12:58:24;;;;;;;6.03;0.85;;;;;;;;;;5014151;28;20049;-71
2023/05/18 13:00:51;;;;;;;6.57;0.98;;;;;;;;;;4985992;28;20054;-70
2023/05/18 13:03:20;;;;;;;5.72;1.00;;;16.10;60.40;;;;;;5012050;28;20565;-71
2023/05/18 13:06:01;;;;;;;4.70;1.10;;;;;;;;;;5014048;28;20140;-67
2023/05/18 13:08:27;;;;;;;6.15;1.02;;;;;;;;;;4997881;28;20103;-72
2023/05/18 13:10:53;;;;;;;9.85;1.42;;;;;;;;;;4995044;28;20045;-71
2023/05/18 13:13:19;;;;;;;3.63;1.10;;;;;;;;;;5008659;28;20061;-73
2023/05/18 13:15:45;;;;;;;3.53;1.27;;;;;;;;;;4984258;28;20135;-72
2023/05/18 13:18:12;;;;;;;8.27;1.38;;;;;;;;;;5008619;28;20557;-71
2023/05/18 13:20:48;;;;;;;9.13;1.38;;;16.10;60.80;;;;;;5014102;28;20049;-73
2023/05/18 13:23:15;;;;;;;8.55;1.40;;;;;;;;;;4998663;28;20085;-70
2023/05/18 13:25:42;;;;;;;4.82;0.85;;;;;;;;;;5007718;28;20073;-71
2023/05/18 13:28:09;;;;;;;7.03;1.23;;;;;;;;;;5014316;28;20193;-70
2023/05/18 13:30:35;;;;;;;7.35;1.55;;;;;;;;;;5009612;28;20197;-71
2023/05/18 13:33:02;;;;;;;4.82;1.63;;;;;;;;;;5008195;28;20057;-71
2023/05/18 13:35:28;;;;;;;11.10;2.85;;;;;;;;;;5000646;28;20054;-72
2023/05/18 13:37:54;;;;;;;6.03;0.93;;;;;;;;;;4999307;28;20111;-71
2023/05/18 13:40:21;;;;;;;6.32;2.08;;;16.10;60.00;;;;;;5006981;28;20317;-70
2023/05/18 13:42:47;;;;;;;4.05;0.75;;;;;;;;;;5004455;28;20111;-73
2023/05/18 13:45:14;;;;;;;5.20;0.82;;;;;;;;;;4999381;28;20061;-73
2023/05/18 13:47:40;;;;;;;5.60;1.30;;;;;;;;;;5005842;28;20061;-71
2023/05/18 13:50:07;;;;;;;7.63;1.40;;;;;;;;;;5011632;28;20509;-71
2023/05/18 13:52:33;;;;;;;8.30;1.83;;;;;;;;;;5007759;28;20053;-70
2023/05/18 13:55:00;;;;;;;7.70;1.33;;;;;;;;;;5002501;28;20518;-72
2023/05/18 13:57:26;;;;;;;7.63;1.55;;;;;;;;;;4992873;28;20053;-71
2023/05/18 13:59:52;;;;;;;7.78;1.00;;;;;;;;;;5007024;28;20076;-71
2023/05/18 14:02:19;;;;;;;7.88;1.02;;;;;;;;;;5006892;28;20450;-73
2023/05/18 14:04:45;;;;;;;4.70;1.02;;;;;;;;;;4998857;28;20045;-70
2023/05/18 14:07:11;;;;;;;7.72;1.30;;;;;;;;;;5006978;28;20089;-71
2023/05/18 14:09:37;;;;;;;7.05;2.97;;;;;;;;;;5002862;28;20151;-72